METAR AND TAF INFORMATION
METAR FOR LOWI
ADDS - METARS form results

(1940 UTC 17 February 2019)
Data provider http://aviationweather.gov/metar/data/
 
METAR text: LOWI 171920Z VRB02KT CAVOK 02/M03 Q1026 NOSIG
Conditions at: LOWI (INNSBRUCK AIRPOR, AT) observed 1920 UTC 17 February 2019
Temperature: 2.0°C (36°F)
Dewpoint: -3.0°C (27°F) [RH = 69%]
Pressure (altimeter): 30.30 inches Hg (1026.0 mb)
Winds: variable direction winds at 2 MPH (2 knots; 1.0 m/s)
Visibility: 6 or more miles (10+ km)
Ceiling: ceiling and visibility are OK
Clouds: unknown
Weather: no significant weather observed at this time

METAR text: LOWI 171850Z VRB01KT CAVOK 01/M04 Q1026 NOSIG
Conditions at: LOWI (INNSBRUCK AIRPOR, AT) observed 1850 UTC 17 February 2019
Temperature: 1.0°C (34°F)
Dewpoint: -4.0°C (25°F) [RH = 69%]
Pressure (altimeter): 30.30 inches Hg (1026.0 mb)
Winds: variable direction winds at 1 MPH (1 knots; 0.5 m/s)
Visibility: 6 or more miles (10+ km)
Ceiling: ceiling and visibility are OK
Clouds: unknown
Weather: no significant weather observed at this time

Forecast for: LOWI (INNSBRUCK AIRPOR, AT)
Text: TAF LOWI 171715Z 1718/1818 VRB02KT CAVOK TX13/1814Z TNM05/1806Z
Forecast period: 1800 UTC 17 February 2019 to 1800 UTC 18 February 2019
Forecast type: FROM: standard forecast or significant change
Winds: variable direction winds at 2 MPH (2 knots; 1.0 m/s)
Visibility: 6 or more miles 10+ km)
Ceiling: unknown
Clouds: missing
Weather: no significant weather forecast for this period

 AIRPORT MAP

 RUNWAY INFORMATION
Runway 08 Runway length 6562 ft Runway width 148 ft
Runway elevation 1906 ft Runway displaced threshold 339 ft Runway heading 81
Runway 26 Runway length 6562 ft Runway width 148 ft
Runway elevation 1893 ft Runway displaced threshold 198 ft Runway heading 261

 AIRPORT FREQUENCIES
Type APP Name APP Frequency 119.275 MHZ
Type ATIS Name ATIS Frequency 126.025 MHZ
Type GND Crew Name Frequency 121.8 MHZ
Type GND Crew Name Frequency 121.9 MHZ
Type TWR Name TWR Frequency 120.1 MHZ

 AIRPORT NEAR NAVIGATION AIDS
Type NDB Name Innsbruck Frequency 420 KHZ
Type NDB Name Kuhtai Frequency 413 KHZ